sensor_id;sensor_type;location;lat;lon;timestamp;pressure;altitude;pressure_sealevel;temperature;humidity
76940;BME280;65885;55.848;35.916;2023-04-25T00:02:09;98988.38;;;12.00;33.78
76940;BME280;65885;55.848;35.916;2023-04-25T00:04:37;98997.09;;;12.01;33.87
76940;BME280;65885;55.848;35.916;2023-04-25T00:07:04;98990.25;;;11.98;33.14
76940;BME280;65885;55.848;35.916;2023-04-25T00:09:32;98986.84;;;11.96;33.49
76940;BME280;65885;55.848;35.916;2023-04-25T00:12:01;98996.53;;;11.96;33.45
76940;BME280;65885;55.848;35.916;2023-04-25T00:14:29;98994.81;;;11.94;33.98
76940;BME280;65885;55.848;35.916;2023-04-25T00:16:59;98989.72;;;11.91;34.10
76940;BME280;65885;55.848;35.916;2023-04-25T00:19:26;98988.88;;;11.91;33.84
76940;BME280;65885;55.848;35.916;2023-04-25T00:21:54;98985.50;;;11.89;34.85
76940;BME280;65885;55.848;35.916;2023-04-25T00:24:21;98982.94;;;11.87;34.47
76940;BME280;65885;55.848;35.916;2023-04-25T00:26:49;98986.50;;;11.86;34.26
76940;BME280;65885;55.848;35.916;2023-04-25T00:29:18;98982.25;;;11.84;34.92
76940;BME280;65885;55.848;35.916;2023-04-25T00:31:45;98983.28;;;11.81;34.23
76940;BME280;65885;55.848;35.916;2023-04-25T00:34:13;98981.59;;;11.79;34.68
76940;BME280;65885;55.848;35.916;2023-04-25T00:36:41;98986.09;;;11.77;34.38
76940;BME280;65885;55.848;35.916;2023-04-25T00:39:08;98978.31;;;11.75;34.20
76940;BME280;65885;55.848;35.916;2023-04-25T00:41:35;98986.28;;;11.74;35.28
76940;BME280;65885;55.848;35.916;2023-04-25T00:44:03;98980.25;;;11.72;34.80
76940;BME280;65885;55.848;35.916;2023-04-25T00:46:34;98984.66;;;11.71;34.23
76940;BME280;65885;55.848;35.916;2023-04-25T00:49:02;98978.63;;;11.69;33.88
76940;BME280;65885;55.848;35.916;2023-04-25T00:51:30;98982.19;;;11.68;34.79
76940;BME280;65885;55.848;35.916;2023-04-25T00:54:00;98988.47;;;11.65;35.13
76940;BME280;65885;55.848;35.916;2023-04-25T00:56:28;98985.06;;;11.63;34.76
76940;BME280;65885;55.848;35.916;2023-04-25T00:58:56;98985.22;;;11.60;34.84
76940;BME280;65885;55.848;35.916;2023-04-25T01:01:23;98984.47;;;11.58;35.96
76940;BME280;65885;55.848;35.916;2023-04-25T01:03:53;98986.38;;;11.55;35.51
76940;BME280;65885;55.848;35.916;2023-04-25T01:06:21;98976.06;;;11.52;36.94
76940;BME280;65885;55.848;35.916;2023-04-25T01:08:49;98978.91;;;11.47;36.14
76940;BME280;65885;55.848;35.916;2023-04-25T01:11:17;98978.25;;;11.44;36.82
76940;BME280;65885;55.848;35.916;2023-04-25T01:13:44;98983.72;;;11.39;35.81
76940;BME280;65885;55.848;35.916;2023-04-25T01:16:12;98980.50;;;11.34;35.74
76940;BME280;65885;55.848;35.916;2023-04-25T01:18:40;98978.88;;;11.31;37.68
76940;BME280;65885;55.848;35.916;2023-04-25T01:21:11;98980.81;;;11.28;36.74
76940;BME280;65885;55.848;35.916;2023-04-25T01:23:40;98985.38;;;11.24;36.99
76940;BME280;65885;55.848;35.916;2023-04-25T01:26:10;98988.16;;;11.21;36.78
76940;BME280;65885;55.848;35.916;2023-04-25T01:28:38;98989.22;;;11.17;37.13
76940;BME280;65885;55.848;35.916;2023-04-25T01:31:07;98996.44;;;11.14;35.68
76940;BME280;65885;55.848;35.916;2023-04-25T01:33:35;98990.47;;;11.10;35.93
76940;BME280;65885;55.848;35.916;2023-04-25T01:36:03;98987.16;;;11.06;36.23
76940;BME280;65885;55.848;35.916;2023-04-25T01:38:32;98989.97;;;11.03;35.91
76940;BME280;65885;55.848;35.916;2023-04-25T01:41:00;98990.19;;;10.99;36.12
76940;BME280;65885;55.848;35.916;2023-04-25T01:43:28;98982.59;;;10.93;35.50
76940;BME280;65885;55.848;35.916;2023-04-25T01:45:56;98990.69;;;10.88;35.34
76940;BME280;65885;55.848;35.916;2023-04-25T01:48:24;98990.88;;;10.85;36.39
76940;BME280;65885;55.848;35.916;2023-04-25T01:50:51;98989.81;;;10.89;35.41
76940;BME280;65885;55.848;35.916;2023-04-25T01:53:19;98991.78;;;11.01;35.23
76940;BME280;65885;55.848;35.916;2023-04-25T01:55:49;98997.34;;;11.13;34.70
76940;BME280;65885;55.848;35.916;2023-04-25T01:58:17;98995.31;;;11.18;35.87
76940;BME280;65885;55.848;35.916;2023-04-25T02:00:44;99002.59;;;11.13;34.96
76940;BME280;65885;55.848;35.916;2023-04-25T02:03:11;99003.97;;;11.02;34.76
76940;BME280;65885;55.848;35.916;2023-04-25T02:05:39;99000.34;;;10.88;35.83
76940;BME280;65885;55.848;35.916;2023-04-25T02:08:08;99003.69;;;10.74;35.45
76940;BME280;65885;55.848;35.916;2023-04-25T02:10:36;99000.97;;;10.58;34.77
76940;BME280;65885;55.848;35.916;2023-04-25T02:13:05;98994.69;;;10.43;35.04
76940;BME280;65885;55.848;35.916;2023-04-25T02:15:33;98997.09;;;10.29;35.91
76940;BME280;65885;55.848;35.916;2023-04-25T02:18:20;98997.81;;;10.14;35.96
76940;BME280;65885;55.848;35.916;2023-04-25T02:20:47;98993.13;;;10.01;35.56
76940;BME280;65885;55.848;35.916;2023-04-25T02:23:15;98997.13;;;9.90;36.72
76940;BME280;65885;55.848;35.916;2023-04-25T02:25:45;99000.34;;;9.78;36.14
76940;BME280;65885;55.848;35.916;2023-04-25T02:28:13;99005.16;;;9.68;36.01
76940;BME280;65885;55.848;35.916;2023-04-25T02:30:41;98997.69;;;9.59;35.75
76940;BME280;65885;55.848;35.916;2023-04-25T02:33:09;98999.78;;;9.51;36.40
76940;BME280;65885;55.848;35.916;2023-04-25T02:35:36;98994.03;;;9.42;36.66
76940;BME280;65885;55.848;35.916;2023-04-25T02:38:04;98992.63;;;9.35;36.89
76940;BME280;65885;55.848;35.916;2023-04-25T02:40:31;98991.97;;;9.30;36.34
76940;BME280;65885;55.848;35.916;2023-04-25T02:42:58;98991.41;;;9.24;36.66
76940;BME280;65885;55.848;35.916;2023-04-25T02:45:28;98996.81;;;9.19;37.17
76940;BME280;65885;55.848;35.916;2023-04-25T02:47:55;98990.03;;;9.15;36.68
76940;BME280;65885;55.848;35.916;2023-04-25T02:50:22;98995.38;;;9.12;36.98
76940;BME280;65885;55.848;35.916;2023-04-25T02:52:50;98991.97;;;9.10;36.97
76940;BME280;65885;55.848;35.916;2023-04-25T02:55:17;98995.53;;;9.09;37.43
76940;BME280;65885;55.848;35.916;2023-04-25T02:57:47;99000.75;;;9.09;37.36
76940;BME280;65885;55.848;35.916;2023-04-25T03:00:14;98998.13;;;9.09;37.09
76940;BME280;65885;55.848;35.916;2023-04-25T03:02:43;98997.22;;;9.10;37.71
76940;BME280;65885;55.848;35.916;2023-04-25T03:05:10;98998.84;;;9.12;39.68
76940;BME280;65885;55.848;35.916;2023-04-25T03:07:38;98990.88;;;9.15;39.15
76940;BME280;65885;55.848;35.916;2023-04-25T03:10:07;98986.34;;;9.19;39.29
76940;BME280;65885;55.848;35.916;2023-04-25T03:12:34;98980.13;;;9.22;39.81
76940;BME280;65885;55.848;35.916;2023-04-25T03:15:02;98994.72;;;9.27;39.46
76940;BME280;65885;55.848;35.916;2023-04-25T03:17:32;98990.22;;;9.31;39.84
76940;BME280;65885;55.848;35.916;2023-04-25T03:20:01;98992.69;;;9.34;39.93
76940;BME280;65885;55.848;35.916;2023-04-25T03:22:30;98993.34;;;9.39;40.05
76940;BME280;65885;55.848;35.916;2023-04-25T03:24:57;98997.59;;;9.41;38.91
76940;BME280;65885;55.848;35.916;2023-04-25T03:27:25;98992.19;;;9.44;40.53
76940;BME280;65885;55.848;35.916;2023-04-25T03:29:52;98995.63;;;9.47;39.80
76940;BME280;65885;55.848;35.916;2023-04-25T03:32:20;98992.00;;;9.49;39.50
76940;BME280;65885;55.848;35.916;2023-04-25T03:34:47;99000.59;;;9.53;39.47
76940;BME280;65885;55.848;35.916;2023-04-25T03:37:16;99009.16;;;9.56;39.39
76940;BME280;65885;55.848;35.916;2023-04-25T03:39:43;99009.00;;;9.59;39.00
76940;BME280;65885;55.848;35.916;2023-04-25T03:42:11;99006.25;;;9.62;38.59
76940;BME280;65885;55.848;35.916;2023-04-25T03:44:38;99006.97;;;9.66;38.82
76940;BME280;65885;55.848;35.916;2023-04-25T03:47:06;99007.63;;;9.71;38.67
76940;BME280;65885;55.848;35.916;2023-04-25T03:49:35;99005.66;;;9.76;39.00
76940;BME280;65885;55.848;35.916;2023-04-25T03:52:02;99001.03;;;9.81;39.34
76940;BME280;65885;55.848;35.916;2023-04-25T03:54:31;99004.16;;;9.89;39.16
76940;BME280;65885;55.848;35.916;2023-04-25T03:56:59;99004.69;;;9.97;39.70
76940;BME280;65885;55.848;35.916;2023-04-25T03:59:26;99012.94;;;10.07;39.72
76940;BME280;65885;55.848;35.916;2023-04-25T04:01:54;99005.50;;;10.17;40.00
76940;BME280;65885;55.848;35.916;2023-04-25T04:04:21;99008.53;;;10.28;40.25
76940;BME280;65885;55.848;35.916;2023-04-25T04:06:49;99008.06;;;10.37;40.45
76940;BME280;65885;55.848;35.916;2023-04-25T04:09:16;99014.56;;;10.47;41.27
76940;BME280;65885;55.848;35.916;2023-04-25T04:11:45;99008.81;;;10.58;41.13
76940;BME280;65885;55.848;35.916;2023-04-25T04:14:12;99013.63;;;10.67;41.03
76940;BME280;65885;55.848;35.916;2023-04-25T04:16:40;99005.38;;;10.75;41.03
76940;BME280;65885;55.848;35.916;2023-04-25T04:19:08;99009.31;;;10.83;41.28
76940;BME280;65885;55.848;35.916;2023-04-25T04:21:35;99008.94;;;10.91;41.26
76940;BME280;65885;55.848;35.916;2023-04-25T04:24:03;99008.53;;;10.99;41.22
76940;BME280;65885;55.848;35.916;2023-04-25T04:26:32;99010.78;;;11.06;41.73
76940;BME280;65885;55.848;35.916;2023-04-25T04:29:01;99018.28;;;11.14;41.44
76940;BME280;65885;55.848;35.916;2023-04-25T04:31:29;99017.03;;;11.21;41.14
76940;BME280;65885;55.848;35.916;2023-04-25T04:33:56;99019.28;;;11.29;40.98
76940;BME280;65885;55.848;35.916;2023-04-25T04:36:24;99009.31;;;11.35;42.04
76940;BME280;65885;55.848;35.916;2023-04-25T04:38:52;99011.38;;;11.46;42.89
76940;BME280;65885;55.848;35.916;2023-04-25T04:41:19;99014.28;;;11.57;42.80
76940;BME280;65885;55.848;35.916;2023-04-25T04:43:47;99012.88;;;11.67;43.20
76940;BME280;65885;55.848;35.916;2023-04-25T04:46:15;99005.22;;;11.80;42.95
76940;BME280;65885;55.848;35.916;2023-04-25T04:48:44;99018.53;;;11.93;43.04
76940;BME280;65885;55.848;35.916;2023-04-25T04:51:11;99008.31;;;12.04;43.04
76940;BME280;65885;55.848;35.916;2023-04-25T04:53:39;98999.72;;;12.16;43.23
76940;BME280;65885;55.848;35.916;2023-04-25T04:56:07;99006.00;;;12.30;43.78
76940;BME280;65885;55.848;35.916;2023-04-25T04:58:34;99002.72;;;12.42;43.62
76940;BME280;65885;55.848;35.916;2023-04-25T05:01:02;99004.63;;;12.54;43.61
76940;BME280;65885;55.848;35.916;2023-04-25T05:03:31;99002.91;;;12.69;43.02
76940;BME280;65885;55.848;35.916;2023-04-25T05:05:59;99000.59;;;12.94;43.37
76940;BME280;65885;55.848;35.916;2023-04-25T05:08:26;98995.13;;;13.27;42.92
76940;BME280;65885;55.848;35.916;2023-04-25T05:10:54;98997.44;;;13.62;42.09
76940;BME280;65885;55.848;35.916;2023-04-25T05:13:21;98994.31;;;13.98;41.66
76940;BME280;65885;55.848;35.916;2023-04-25T05:15:49;98996.41;;;14.34;41.20
76940;BME280;65885;55.848;35.916;2023-04-25T05:18:16;99000.56;;;14.65;41.01
76940;BME280;65885;55.848;35.916;2023-04-25T05:20:45;98995.00;;;14.97;40.22
76940;BME280;65885;55.848;35.916;2023-04-25T05:23:12;98988.66;;;15.25;39.68
76940;BME280;65885;55.848;35.916;2023-04-25T05:25:41;98988.47;;;15.53;39.39
76940;BME280;65885;55.848;35.916;2023-04-25T05:28:08;98987.03;;;15.75;38.93
76940;BME280;65885;55.848;35.916;2023-04-25T05:30:36;98990.69;;;15.98;38.65
76940;BME280;65885;55.848;35.916;2023-04-25T05:33:03;98989.28;;;16.18;38.25
76940;BME280;65885;55.848;35.916;2023-04-25T05:35:31;98984.69;;;16.32;38.09
76940;BME280;65885;55.848;35.916;2023-04-25T05:38:00;98990.47;;;16.37;38.12
76940;BME280;65885;55.848;35.916;2023-04-25T05:40:27;98986.03;;;16.38;38.19
76940;BME280;65885;55.848;35.916;2023-04-25T05:42:54;98984.47;;;16.35;38.70
76940;BME280;65885;55.848;35.916;2023-04-25T05:45:23;98984.56;;;16.34;38.58
76940;BME280;65885;55.848;35.916;2023-04-25T05:47:51;98986.25;;;16.35;38.76
76940;BME280;65885;55.848;35.916;2023-04-25T05:50:18;98982.66;;;16.36;39.12
76940;BME280;65885;55.848;35.916;2023-04-25T05:52:46;98984.03;;;16.42;39.60
76940;BME280;65885;55.848;35.916;2023-04-25T05:55:14;98985.03;;;16.52;40.04
76940;BME280;65885;55.848;35.916;2023-04-25T05:57:42;98987.31;;;16.69;40.58
76940;BME280;65885;55.848;35.916;2023-04-25T06:00:12;98983.19;;;16.89;40.55
76940;BME280;65885;55.848;35.916;2023-04-25T06:02:41;98983.00;;;17.14;40.34
76940;BME280;65885;55.848;35.916;2023-04-25T06:05:08;98979.94;;;17.43;40.41
76940;BME280;65885;55.848;35.916;2023-04-25T06:07:37;98981.72;;;17.78;40.01
76940;BME280;65885;55.848;35.916;2023-04-25T06:10:06;98974.69;;;18.10;39.78
76940;BME280;65885;55.848;35.916;2023-04-25T06:12:35;98976.56;;;18.42;39.65
76940;BME280;65885;55.848;35.916;2023-04-25T06:15:08;98977.78;;;18.81;38.97
76940;BME280;65885;55.848;35.916;2023-04-25T06:17:36;98965.75;;;19.19;38.26
76940;BME280;65885;55.848;35.916;2023-04-25T06:20:05;98961.06;;;19.53;37.98
76940;BME280;65885;55.848;35.916;2023-04-25T06:22:32;98961.09;;;19.83;37.03
76940;BME280;65885;55.848;35.916;2023-04-25T06:25:00;98959.94;;;20.07;36.33
76940;BME280;65885;55.848;35.916;2023-04-25T06:27:31;98959.84;;;20.28;36.24
76940;BME280;65885;55.848;35.916;2023-04-25T06:30:00;98960.75;;;20.47;36.24
76940;BME280;65885;55.848;35.916;2023-04-25T06:32:30;98955.44;;;20.67;35.49
76940;BME280;65885;55.848;35.916;2023-04-25T06:34:57;98957.53;;;20.83;34.96
76940;BME280;65885;55.848;35.916;2023-04-25T06:37:25;98965.81;;;20.99;34.81
76940;BME280;65885;55.848;35.916;2023-04-25T06:39:52;98960.47;;;21.18;34.50
76940;BME280;65885;55.848;35.916;2023-04-25T06:42:20;98957.38;;;21.42;33.88
76940;BME280;65885;55.848;35.916;2023-04-25T06:44:48;98964.19;;;21.64;33.36
76940;BME280;65885;55.848;35.916;2023-04-25T06:47:17;98947.53;;;21.80;32.80
76940;BME280;65885;55.848;35.916;2023-04-25T06:49:44;98955.81;;;21.86;32.76
76940;BME280;65885;55.848;35.916;2023-04-25T06:52:12;98958.03;;;21.91;32.76
76940;BME280;65885;55.848;35.916;2023-04-25T06:54:39;98952.69;;;21.91;32.23
76940;BME280;65885;55.848;35.916;2023-04-25T06:57:07;98956.34;;;21.90;32.15
76940;BME280;65885;55.848;35.916;2023-04-25T06:59:34;98952.31;;;21.86;32.30
76940;BME280;65885;55.848;35.916;2023-04-25T07:02:02;98960.47;;;21.84;32.46
76940;BME280;65885;55.848;35.916;2023-04-25T07:04:33;98957.78;;;21.84;32.90
76940;BME280;65885;55.848;35.916;2023-04-25T07:07:00;98956.50;;;21.88;32.18
76940;BME280;65885;55.848;35.916;2023-04-25T07:09:29;98959.28;;;21.97;31.03
76940;BME280;65885;55.848;35.916;2023-04-25T07:11:59;98956.00;;;22.03;31.07
76940;BME280;65885;55.848;35.916;2023-04-25T07:14:27;98964.31;;;22.09;31.22
76940;BME280;65885;55.848;35.916;2023-04-25T07:16:54;98960.59;;;22.20;30.22
76940;BME280;65885;55.848;35.916;2023-04-25T07:19:22;98960.31;;;22.23;29.11
76940;BME280;65885;55.848;35.916;2023-04-25T07:21:53;98963.09;;;22.22;28.93
76940;BME280;65885;55.848;35.916;2023-04-25T07:24:22;98962.25;;;22.21;28.97
76940;BME280;65885;55.848;35.916;2023-04-25T07:26:50;98954.56;;;22.36;29.24
76940;BME280;65885;55.848;35.916;2023-04-25T07:29:17;98963.56;;;22.62;29.07
76940;BME280;65885;55.848;35.916;2023-04-25T07:31:44;98950.50;;;22.95;29.19
76940;BME280;65885;55.848;35.916;2023-04-25T07:34:12;98949.13;;;23.35;29.23
76940;BME280;65885;55.848;35.916;2023-04-25T07:36:40;98950.09;;;23.77;28.85
76940;BME280;65885;55.848;35.916;2023-04-25T07:39:09;98947.25;;;24.21;28.30
76940;BME280;65885;55.848;35.916;2023-04-25T07:41:38;98949.88;;;24.63;26.85
76940;BME280;65885;55.848;35.916;2023-04-25T07:44:05;98945.75;;;25.02;26.37
76940;BME280;65885;55.848;35.916;2023-04-25T07:46:32;98943.91;;;25.35;25.69
76940;BME280;65885;55.848;35.916;2023-04-25T07:49:00;98940.31;;;25.67;24.67
76940;BME280;65885;55.848;35.916;2023-04-25T07:51:29;98946.63;;;25.90;23.78
76940;BME280;65885;55.848;35.916;2023-04-25T07:54:00;98944.38;;;26.10;23.78
76940;BME280;65885;55.848;35.916;2023-04-25T07:56:30;98947.81;;;26.27;23.30
76940;BME280;65885;55.848;35.916;2023-04-25T07:58:57;98948.47;;;26.29;23.21
76940;BME280;65885;55.848;35.916;2023-04-25T08:01:25;98938.28;;;26.24;23.52
76940;BME280;65885;55.848;35.916;2023-04-25T08:03:52;98935.44;;;26.18;23.17
76940;BME280;65885;55.848;35.916;2023-04-25T08:06:20;98940.03;;;26.09;23.11
76940;BME280;65885;55.848;35.916;2023-04-25T08:08:47;98936.34;;;26.02;23.64
76940;BME280;65885;55.848;35.916;2023-04-25T08:11:15;98930.84;;;25.95;23.48
76940;BME280;65885;55.848;35.916;2023-04-25T08:13:44;98930.34;;;25.92;23.95
76940;BME280;65885;55.848;35.916;2023-04-25T08:16:12;98927.13;;;25.96;24.12
76940;BME280;65885;55.848;35.916;2023-04-25T08:18:39;98927.09;;;26.05;23.54
76940;BME280;65885;55.848;35.916;2023-04-25T08:21:07;98928.25;;;26.10;22.57
76940;BME280;65885;55.848;35.916;2023-04-25T08:23:37;98919.34;;;26.10;22.07
76940;BME280;65885;55.848;35.916;2023-04-25T08:26:04;98916.66;;;26.10;22.25
76940;BME280;65885;55.848;35.916;2023-04-25T08:28:32;98914.63;;;26.12;21.94
76940;BME280;65885;55.848;35.916;2023-04-25T08:31:00;98911.09;;;26.11;21.89
76940;BME280;65885;55.848;35.916;2023-04-25T08:33:28;98906.22;;;26.15;21.85
76940;BME280;65885;55.848;35.916;2023-04-25T08:35:56;98903.81;;;26.20;21.51
76940;BME280;65885;55.848;35.916;2023-04-25T08:38:23;98899.97;;;26.22;21.40
76940;BME280;65885;55.848;35.916;2023-04-25T08:40:50;98901.09;;;26.28;21.93
76940;BME280;65885;55.848;35.916;2023-04-25T08:43:19;98891.78;;;26.47;21.99
76940;BME280;65885;55.848;35.916;2023-04-25T08:45:47;98893.69;;;26.84;21.58
76940;BME280;65885;55.848;35.916;2023-04-25T08:48:17;98889.97;;;27.23;21.33
76940;BME280;65885;55.848;35.916;2023-04-25T08:50:48;98883.19;;;27.56;20.94
76940;BME280;65885;55.848;35.916;2023-04-25T08:53:21;98880.31;;;27.87;20.76
76940;BME280;65885;55.848;35.916;2023-04-25T08:55:50;98886.72;;;28.01;20.09
76940;BME280;65885;55.848;35.916;2023-04-25T08:58:18;98883.28;;;28.07;20.13
76940;BME280;65885;55.848;35.916;2023-04-25T09:00:46;98882.63;;;28.05;20.31
76940;BME280;65885;55.848;35.916;2023-04-25T09:03:17;98884.75;;;28.10;20.56
76940;BME280;65885;55.848;35.916;2023-04-25T09:05:44;98877.56;;;28.17;19.68
76940;BME280;65885;55.848;35.916;2023-04-25T09:08:12;98870.03;;;28.27;20.17
76940;BME280;65885;55.848;35.916;2023-04-25T09:10:40;98870.44;;;28.45;20.46
76940;BME280;65885;55.848;35.916;2023-04-25T09:13:09;98867.94;;;28.65;19.82
76940;BME280;65885;55.848;35.916;2023-04-25T09:15:48;98862.13;;;28.90;19.89
76940;BME280;65885;55.848;35.916;2023-04-25T09:18:25;98862.91;;;29.05;20.44
76940;BME280;65885;55.848;35.916;2023-04-25T09:20:54;98858.44;;;29.19;20.00
76940;BME280;65885;55.848;35.916;2023-04-25T09:23:23;98864.88;;;29.24;19.57
76940;BME280;65885;55.848;35.916;2023-04-25T09:25:52;98856.00;;;29.30;19.69
76940;BME280;65885;55.848;35.916;2023-04-25T09:28:24;98856.66;;;29.39;19.79
76940;BME280;65885;55.848;35.916;2023-04-25T09:30:55;98869.41;;;29.45;19.64
76940;BME280;65885;55.848;35.916;2023-04-25T09:33:29;98856.09;;;29.44;19.30
76940;BME280;65885;55.848;35.916;2023-04-25T09:36:03;98867.06;;;29.36;19.21
76940;BME280;65885;55.848;35.916;2023-04-25T09:38:31;98858.94;;;29.36;19.40
76940;BME280;65885;55.848;35.916;2023-04-25T09:40:59;98855.41;;;29.35;19.22
76940;BME280;65885;55.848;35.916;2023-04-25T09:43:27;98853.34;;;29.37;18.99
76940;BME280;65885;55.848;35.916;2023-04-25T09:45:55;98858.50;;;29.32;18.25
76940;BME280;65885;55.848;35.916;2023-04-25T09:48:26;98848.16;;;29.08;18.29
76940;BME280;65885;55.848;35.916;2023-04-25T09:51:08;98851.22;;;28.77;18.25
76940;BME280;65885;55.848;35.916;2023-04-25T09:53:38;98844.28;;;28.46;18.03
76940;BME280;65885;55.848;35.916;2023-04-25T09:56:07;98853.09;;;28.18;18.23
76940;BME280;65885;55.848;35.916;2023-04-25T09:58:36;98849.31;;;27.77;19.07
76940;BME280;65885;55.848;35.916;2023-04-25T10:01:06;98839.56;;;27.31;19.38
76940;BME280;65885;55.848;35.916;2023-04-25T10:03:36;98844.19;;;26.85;19.83
76940;BME280;65885;55.848;35.916;2023-04-25T10:06:09;98841.38;;;26.41;19.95
76940;BME280;65885;55.848;35.916;2023-04-25T10:08:39;98850.84;;;25.97;20.81
76940;BME280;65885;55.848;35.916;2023-04-25T10:11:07;98841.59;;;25.61;20.88
76940;BME280;65885;55.848;35.916;2023-04-25T10:13:36;98837.19;;;25.29;21.07
76940;BME280;65885;55.848;35.916;2023-04-25T10:16:04;98837.53;;;25.01;20.90
76940;BME280;65885;55.848;35.916;2023-04-25T10:18:32;98840.44;;;24.75;21.62
76940;BME280;65885;55.848;35.916;2023-04-25T10:21:01;98835.75;;;24.61;22.10
76940;BME280;65885;55.848;35.916;2023-04-25T10:23:32;98830.03;;;24.56;21.97
76940;BME280;65885;55.848;35.916;2023-04-25T10:26:00;98826.69;;;24.62;22.73
76940;BME280;65885;55.848;35.916;2023-04-25T10:28:28;98825.69;;;24.79;23.18
76940;BME280;65885;55.848;35.916;2023-04-25T10:31:01;98834.84;;;25.01;22.94
76940;BME280;65885;55.848;35.916;2023-04-25T10:33:32;98840.25;;;25.17;22.51
76940;BME280;65885;55.848;35.916;2023-04-25T10:36:09;98831.16;;;25.27;22.35
76940;BME280;65885;55.848;35.916;2023-04-25T10:38:39;98831.31;;;25.33;22.28
76940;BME280;65885;55.848;35.916;2023-04-25T10:41:07;98834.00;;;25.33;22.59
76940;BME280;65885;55.848;35.916;2023-04-25T10:43:39;98829.47;;;25.34;22.33
76940;BME280;65885;55.848;35.916;2023-04-25T10:46:14;98829.13;;;25.29;22.77
76940;BME280;65885;55.848;35.916;2023-04-25T10:48:47;98826.81;;;25.17;22.38
76940;BME280;65885;55.848;35.916;2023-04-25T10:51:21;98835.03;;;25.00;22.22
76940;BME280;65885;55.848;35.916;2023-04-25T10:53:59;98835.41;;;24.80;22.94
76940;BME280;65885;55.848;35.916;2023-04-25T10:56:29;98837.75;;;24.59;23.29
76940;BME280;65885;55.848;35.916;2023-04-25T10:59:06;98831.03;;;24.39;23.84
76940;BME280;65885;55.848;35.916;2023-04-25T11:01:39;98829.69;;;24.18;23.69
76940;BME280;65885;55.848;35.916;2023-04-25T11:04:19;98820.56;;;24.03;23.59
76940;BME280;65885;55.848;35.916;2023-04-25T11:06:58;98811.69;;;23.94;23.64
76940;BME280;65885;55.848;35.916;2023-04-25T11:09:31;98811.47;;;23.79;23.68
76940;BME280;65885;55.848;35.916;2023-04-25T11:12:02;98808.97;;;23.78;24.42
76940;BME280;65885;55.848;35.916;2023-04-25T11:14:30;98809.81;;;23.78;24.08
76940;BME280;65885;55.848;35.916;2023-04-25T11:17:00;98801.78;;;23.87;24.34
76940;BME280;65885;55.848;35.916;2023-04-25T11:19:29;98796.13;;;23.98;23.96
76940;BME280;65885;55.848;35.916;2023-04-25T11:21:59;98788.78;;;24.08;23.79
76940;BME280;65885;55.848;35.916;2023-04-25T11:24:31;98775.19;;;24.18;24.04
76940;BME280;65885;55.848;35.916;2023-04-25T11:27:00;98781.63;;;24.41;24.43
76940;BME280;65885;55.848;35.916;2023-04-25T11:29:30;98776.88;;;24.76;23.78
76940;BME280;65885;55.848;35.916;2023-04-25T11:31:59;98774.31;;;25.15;23.91
76940;BME280;65885;55.848;35.916;2023-04-25T11:34:29;98780.31;;;25.64;23.94
76940;BME280;65885;55.848;35.916;2023-04-25T11:37:00;98770.16;;;26.06;22.91
76940;BME280;65885;55.848;35.916;2023-04-25T11:39:30;98767.72;;;26.42;22.58
76940;BME280;65885;55.848;35.916;2023-04-25T11:41:58;98765.41;;;26.76;22.79
76940;BME280;65885;55.848;35.916;2023-04-25T11:44:28;98762.81;;;27.13;22.70
76940;BME280;65885;55.848;35.916;2023-04-25T11:46:56;98757.41;;;27.42;22.35
76940;BME280;65885;55.848;35.916;2023-04-25T11:49:30;98755.09;;;27.69;21.67
76940;BME280;65885;55.848;35.916;2023-04-25T11:51:59;98756.72;;;27.84;21.62
76940;BME280;65885;55.848;35.916;2023-04-25T11:54:27;98749.31;;;27.93;21.27
76940;BME280;65885;55.848;35.916;2023-04-25T11:56:56;98744.44;;;28.03;21.44
76940;BME280;65885;55.848;35.916;2023-04-25T11:59:25;98746.00;;;28.12;21.34
76940;BME280;65885;55.848;35.916;2023-04-25T12:01:54;98741.50;;;28.19;20.79
76940;BME280;65885;55.848;35.916;2023-04-25T12:04:25;98729.47;;;28.22;21.22
76940;BME280;65885;55.848;35.916;2023-04-25T12:06:55;98731.34;;;28.22;20.74
76940;BME280;65885;55.848;35.916;2023-04-25T12:09:28;98735.91;;;28.21;20.86
76940;BME280;65885;55.848;35.916;2023-04-25T12:12:00;98718.63;;;28.15;20.63
76940;BME280;65885;55.848;35.916;2023-04-25T12:14:32;98719.41;;;28.09;20.16
76940;BME280;65885;55.848;35.916;2023-04-25T12:17:03;98706.06;;;28.01;20.57
76940;BME280;65885;55.848;35.916;2023-04-25T12:19:34;98711.59;;;27.93;20.04
76940;BME280;65885;55.848;35.916;2023-04-25T12:22:19;98699.47;;;27.82;20.74
76940;BME280;65885;55.848;35.916;2023-04-25T12:24:48;98700.41;;;27.75;20.19
76940;BME280;65885;55.848;35.916;2023-04-25T12:27:18;98700.34;;;27.68;21.20
76940;BME280;65885;55.848;35.916;2023-04-25T12:29:51;98692.34;;;27.75;20.87
76940;BME280;65885;55.848;35.916;2023-04-25T12:32:18;98683.03;;;27.77;20.42
76940;BME280;65885;55.848;35.916;2023-04-25T12:34:46;98679.03;;;27.73;20.52
76940;BME280;65885;55.848;35.916;2023-04-25T12:37:14;98674.56;;;27.65;20.48
76940;BME280;65885;55.848;35.916;2023-04-25T12:39:43;98671.81;;;27.59;20.74
76940;BME280;65885;55.848;35.916;2023-04-25T12:42:12;98665.13;;;27.55;20.64
76940;BME280;65885;55.848;35.916;2023-04-25T12:44:41;98666.38;;;27.52;20.52
76940;BME280;65885;55.848;35.916;2023-04-25T12:47:08;98658.28;;;27.52;20.74
76940;BME280;65885;55.848;35.916;2023-04-25T12:49:36;98647.88;;;27.49;20.36
76940;BME280;65885;55.848;35.916;2023-04-25T12:52:03;98653.66;;;27.46;20.56
76940;BME280;65885;55.848;35.916;2023-04-25T12:54:31;98648.47;;;27.45;21.00
76940;BME280;65885;55.848;35.916;2023-04-25T12:56:58;98644.09;;;27.44;21.01
76940;BME280;65885;55.848;35.916;2023-04-25T12:59:28;98640.25;;;27.53;20.80